createdAt,value
2022-09-20T00:02:15.055Z,11.27
2022-09-20T00:04:43.083Z,6.50
2022-09-20T00:07:15.644Z,5.57
2022-09-20T00:09:44.176Z,5.30
2022-09-20T00:12:12.381Z,5.47
2022-09-20T00:14:40.612Z,9.45
2022-09-20T00:17:08.601Z,7.80
2022-09-20T00:19:39.230Z,4.43
2022-09-20T00:22:08.987Z,6.00
2022-09-20T00:24:37.198Z,6.93
2022-09-20T00:27:05.665Z,8.00
2022-09-20T00:29:33.728Z,4.00
2022-09-20T00:32:02.141Z,6.93
2022-09-20T00:34:48.788Z,6.55
2022-09-20T00:37:18.472Z,6.75
2022-09-20T00:39:48.784Z,4.65
2022-09-20T00:42:17.278Z,4.07
2022-09-20T00:44:57.080Z,6.25
2022-09-20T00:47:47.328Z,8.65
2022-09-20T00:50:25.869Z,6.05
2022-09-20T00:52:59.681Z,4.35
2022-09-20T00:55:29.710Z,9.02
2022-09-20T00:57:58.651Z,4.68
2022-09-20T01:00:29.401Z,3.35
2022-09-20T01:03:00.556Z,3.85
2022-09-20T01:05:31.387Z,4.63
2022-09-20T01:08:01.824Z,6.50
2022-09-20T01:10:30.509Z,9.13
2022-09-20T01:12:59.601Z,7.78
2022-09-20T01:15:28.907Z,4.38
2022-09-20T01:18:01.351Z,4.63
2022-09-20T01:20:31.965Z,4.43
2022-09-20T01:23:25.567Z,6.97
2022-09-20T01:26:15.311Z,5.35
2022-09-20T01:28:48.132Z,4.75
2022-09-20T01:31:19.077Z,8.85
2022-09-20T01:33:51.091Z,7.03
2022-09-20T01:36:23.383Z,9.88
2022-09-20T01:38:58.220Z,9.57
2022-09-20T01:41:30.347Z,10.13
2022-09-20T01:44:07.322Z,6.18
2022-09-20T01:46:37.992Z,7.13
2022-09-20T01:49:19.558Z,8.07
2022-09-20T01:52:05.294Z,8.68
2022-09-20T01:54:58.002Z,6.50
2022-09-20T02:00:26.432Z,6.78
2022-09-20T02:03:16.546Z,5.70
2022-09-20T02:06:23.353Z,4.32
2022-09-20T02:09:17.742Z,4.80
2022-09-20T02:11:59.078Z,6.97
2022-09-20T02:14:37.290Z,8.60
2022-09-20T02:17:14.616Z,4.20
2022-09-20T02:19:54.277Z,4.32
2022-09-20T02:22:33.579Z,7.47
2022-09-20T02:25:11.714Z,7.65
2022-09-20T02:27:49.206Z,12.40
2022-09-20T02:30:30.610Z,9.85
2022-09-20T02:33:16.018Z,5.40
2022-09-20T02:36:00.303Z,8.68
2022-09-20T02:38:38.539Z,7.82
2022-09-20T02:41:45.983Z,5.85
2022-09-20T02:44:22.485Z,7.85
2022-09-20T02:46:55.179Z,11.15
2022-09-20T02:49:30.132Z,6.95
2022-09-20T02:51:59.607Z,8.93
2022-09-20T02:54:35.649Z,10.45
2022-09-20T02:57:07.500Z,6.78
2022-09-20T02:59:42.227Z,10.60
2022-09-20T03:02:22.648Z,8.10
2022-09-20T03:05:06.223Z,7.97
2022-09-20T03:07:41.564Z,10.60
2022-09-20T03:10:17.492Z,11.07
2022-09-20T03:12:55.427Z,14.70
2022-09-20T03:15:32.927Z,12.10
2022-09-20T03:18:10.854Z,19.55
2022-09-20T03:20:48.227Z,8.43
2022-09-20T03:23:29.864Z,6.35
2022-09-20T03:26:02.038Z,6.80
2022-09-20T03:28:43.593Z,11.38
2022-09-20T03:31:25.718Z,8.02
2022-09-20T03:34:02.231Z,12.38
2022-09-20T03:36:48.055Z,7.22
2022-09-20T03:39:37.786Z,8.30
2022-09-20T03:42:16.981Z,10.43
2022-09-20T03:45:00.910Z,10.30
2022-09-20T03:47:42.917Z,15.68
2022-09-20T03:50:22.374Z,14.68
2022-09-20T03:53:31.260Z,11.50
2022-09-20T03:56:11.739Z,9.25
2022-09-20T03:58:56.444Z,8.73
2022-09-20T04:01:40.749Z,8.80
2022-09-20T04:04:18.453Z,9.20
2022-09-20T04:07:06.392Z,10.73
2022-09-20T04:09:47.676Z,7.32
2022-09-20T04:12:25.381Z,8.23
2022-09-20T04:14:58.535Z,13.20
2022-09-20T04:17:32.532Z,12.70
2022-09-20T04:20:05.753Z,8.48
2022-09-20T04:22:36.866Z,10.82
2022-09-20T04:25:19.548Z,10.10
2022-09-20T04:27:50.421Z,9.95
2022-09-20T04:30:21.486Z,8.48
2022-09-20T04:32:54.517Z,10.00
2022-09-20T04:35:52.133Z,12.93
2022-09-20T04:38:22.600Z,6.32
2022-09-20T04:41:04.152Z,6.03
2022-09-20T04:43:54.355Z,13.40
2022-09-20T04:46:41.393Z,12.57
2022-09-20T04:49:34.173Z,11.52
2022-09-20T04:55:12.502Z,11.05
2022-09-20T04:58:19.627Z,6.63
2022-09-20T05:01:06.223Z,10.20
2022-09-20T05:04:14.364Z,6.95
2022-09-20T05:07:03.213Z,10.55
2022-09-20T05:09:53.889Z,10.35
2022-09-20T05:12:54.776Z,12.23
2022-09-20T05:15:35.742Z,9.07
2022-09-20T05:18:27.714Z,17.08
2022-09-20T05:21:11.486Z,14.10
2022-09-20T05:24:08.372Z,4.90
2022-09-20T05:26:52.215Z,13.70
2022-09-20T05:29:25.779Z,10.85
2022-09-20T05:31:57.681Z,6.97
2022-09-20T05:34:34.772Z,9.18
2022-09-20T05:37:08.026Z,11.40
2022-09-20T05:39:40.176Z,4.18
2022-09-20T05:42:18.357Z,10.05
2022-09-20T05:44:55.994Z,9.95
2022-09-20T05:47:36.394Z,9.13
2022-09-20T05:50:20.486Z,22.38
2022-09-20T05:52:54.916Z,8.93
2022-09-20T05:55:48.248Z,12.05
2022-09-20T05:58:24.794Z,10.57
2022-09-20T06:00:59.162Z,7.70
2022-09-20T06:03:36.061Z,8.77
2022-09-20T06:06:10.857Z,8.65
2022-09-20T06:08:58.265Z,10.80
2022-09-20T06:12:00.515Z,11.98
2022-09-20T06:14:40.094Z,10.77
2022-09-20T06:17:17.667Z,11.15
2022-09-20T06:19:47.599Z,7.70
2022-09-20T06:22:22.955Z,12.70
2022-09-20T06:24:58.180Z,11.30
2022-09-20T06:27:29.626Z,12.75
2022-09-20T06:30:01.023Z,18.95
2022-09-20T06:32:29.479Z,12.57
2022-09-20T06:34:57.884Z,12.75
2022-09-20T06:37:57.580Z,13.70
2022-09-20T06:40:53.224Z,14.20
2022-09-20T06:43:30.593Z,9.15
2022-09-20T06:45:59.076Z,15.93
2022-09-20T06:48:27.291Z,9.60
2022-09-20T06:50:55.558Z,13.18
2022-09-20T06:53:29.479Z,12.63
2022-09-20T06:55:58.052Z,15.88
2022-09-20T06:58:27.514Z,11.73
2022-09-20T07:00:55.658Z,12.73
2022-09-20T07:03:24.602Z,17.45
2022-09-20T07:05:52.712Z,12.73
2022-09-20T07:08:21.081Z,15.10
2022-09-20T07:10:51.966Z,10.23
2022-09-20T07:13:20.903Z,13.75
2022-09-20T07:15:49.211Z,11.35
2022-09-20T07:18:17.424Z,15.05
2022-09-20T07:20:45.424Z,11.27
2022-09-20T07:23:15.764Z,11.82
2022-09-20T07:25:46.655Z,11.93
2022-09-20T07:28:16.406Z,14.98
2022-09-20T07:30:44.717Z,12.35
2022-09-20T07:33:17.436Z,11.35
2022-09-20T07:35:47.155Z,9.10
2022-09-20T07:38:15.876Z,10.05
2022-09-20T07:40:44.805Z,10.57
2022-09-20T07:43:13.540Z,16.75
2022-09-20T07:45:43.112Z,16.23
2022-09-20T07:48:12.007Z,11.25
2022-09-20T07:50:40.137Z,10.25
2022-09-20T07:53:08.582Z,9.75
2022-09-20T07:55:37.104Z,8.88
2022-09-20T07:58:05.233Z,10.38
2022-09-20T08:00:33.383Z,10.82
2022-09-20T08:03:06.047Z,12.43
2022-09-20T08:05:35.864Z,8.88
2022-09-20T08:08:04.257Z,9.80
2022-09-20T08:10:33.034Z,10.02
2022-09-20T08:15:49.266Z,15.15
2022-09-20T08:18:18.936Z,10.55
2022-09-20T08:20:47.043Z,14.30
2022-09-20T08:23:23.339Z,16.58
2022-09-20T08:25:52.083Z,19.45
2022-09-20T08:28:20.252Z,11.77
2022-09-20T08:30:48.437Z,10.68
2022-09-20T08:33:18.129Z,14.35
2022-09-20T08:35:50.027Z,16.48
2022-09-20T08:41:12.524Z,9.50
2022-09-20T08:43:45.590Z,13.77
2022-09-20T08:46:16.590Z,15.73
2022-09-20T08:48:46.632Z,14.32
2022-09-20T08:51:22.588Z,15.88
2022-09-20T08:53:53.891Z,18.55
2022-09-20T08:56:22.826Z,12.73
2022-09-20T08:58:51.252Z,17.80
2022-09-20T09:01:22.869Z,14.15
2022-09-20T09:03:55.224Z,11.00
2022-09-20T09:08:53.912Z,11.90
2022-09-20T09:11:23.541Z,6.85
2022-09-20T09:13:54.745Z,9.93
2022-09-20T09:16:31.858Z,9.30
2022-09-20T09:19:33.297Z,13.00
2022-09-20T09:22:03.139Z,11.77
2022-09-20T09:24:32.109Z,12.45
2022-09-20T09:27:08.208Z,11.93
2022-09-20T09:29:36.779Z,11.02
2022-09-20T09:32:23.771Z,11.13
2022-09-20T09:34:53.574Z,8.35
2022-09-20T09:37:30.659Z,10.88
2022-09-20T09:40:09.305Z,16.48
2022-09-20T09:42:37.460Z,16.38
2022-09-20T09:45:12.876Z,10.55
2022-09-20T09:47:42.382Z,12.15
2022-09-20T09:50:23.649Z,13.82
2022-09-20T09:52:59.373Z,14.70
2022-09-20T09:55:38.131Z,10.57
2022-09-20T09:58:10.319Z,11.43
2022-09-20T10:00:43.103Z,12.40
2022-09-20T10:03:34.403Z,11.90
2022-09-20T10:06:09.715Z,12.88
2022-09-20T10:08:43.648Z,11.88
2022-09-20T10:11:21.609Z,11.88
2022-09-20T10:13:58.718Z,14.27
2022-09-20T10:16:39.805Z,11.63
2022-09-20T10:19:14.381Z,13.35
2022-09-20T10:21:50.875Z,10.85
2022-09-20T10:24:30.874Z,10.77
2022-09-20T10:27:26.564Z,9.57
2022-09-20T10:30:04.254Z,12.63
2022-09-20T10:32:50.286Z,8.73
2022-09-20T10:35:27.655Z,11.25
2022-09-20T10:38:14.703Z,11.52
2022-09-20T10:41:10.472Z,8.20
2022-09-20T10:43:55.375Z,9.25
2022-09-20T10:46:32.832Z,8.18
2022-09-20T10:49:26.725Z,10.55
2022-09-20T10:52:09.226Z,9.10
2022-09-20T10:57:25.711Z,8.05
2022-09-20T10:59:59.480Z,7.15
2022-09-20T11:02:47.232Z,6.55
2022-09-20T11:05:25.402Z,6.55
2022-09-20T11:08:00.615Z,9.43
2022-09-20T11:10:36.325Z,5.90
2022-09-20T11:13:11.900Z,5.55
2022-09-20T11:15:44.011Z,6.95
2022-09-20T11:18:14.082Z,6.43
2022-09-20T11:20:45.785Z,6.72
2022-09-20T11:23:15.604Z,5.72
2022-09-20T11:25:48.192Z,6.35
2022-09-20T11:28:20.917Z,7.00
2022-09-20T11:30:56.317Z,5.63
2022-09-20T11:33:27.039Z,7.50
2022-09-20T11:35:59.750Z,6.97
2022-09-20T11:38:31.260Z,6.53
2022-09-20T11:41:06.420Z,5.60
2022-09-20T11:43:41.563Z,7.38
2022-09-20T11:46:13.467Z,7.65
2022-09-20T11:48:46.662Z,10.02
2022-09-20T11:51:49.919Z,7.53
2022-09-20T11:54:43.507Z,9.50
2022-09-20T11:57:16.766Z,5.82
2022-09-20T11:59:51.417Z,9.25
2022-09-20T12:02:25.050Z,5.47
2022-09-20T12:04:57.026Z,7.20
2022-09-20T12:07:29.813Z,10.75
2022-09-20T12:10:00.983Z,5.30
2022-09-20T12:12:35.414Z,7.63
2022-09-20T12:15:09.504Z,7.35
2022-09-20T12:18:15.662Z,5.63
2022-09-20T12:21:14.995Z,4.28
2022-09-20T12:24:14.069Z,5.32
2022-09-20T12:26:47.197Z,4.93
2022-09-20T12:30:03.817Z,8.07
2022-09-20T12:32:45.159Z,3.58
2022-09-20T12:35:56.343Z,5.50
2022-09-20T12:38:34.140Z,5.40
2022-09-20T12:41:10.251Z,3.88
2022-09-20T12:43:41.458Z,6.57
2022-09-20T12:46:21.021Z,4.82
2022-09-20T12:48:51.773Z,3.85
2022-09-20T12:51:41.202Z,6.88
2022-09-20T12:54:14.588Z,3.72
2022-09-20T12:56:48.569Z,4.15
2022-09-20T12:59:22.839Z,2.35
2022-09-20T13:01:53.534Z,2.75
2022-09-20T13:04:42.469Z,3.75
2022-09-20T13:07:43.954Z,4.40
2022-09-20T13:10:30.629Z,0.80
2022-09-20T13:13:06.188Z,12.93
2022-09-20T13:15:36.267Z,3.95
2022-09-20T13:18:06.307Z,8.70
2022-09-20T13:20:35.918Z,3.42
2022-09-20T13:23:06.468Z,1.48
2022-09-20T13:25:36.543Z,1.70
2022-09-20T13:28:10.546Z,1.63
2022-09-20T13:30:41.949Z,1.73
2022-09-20T13:33:22.753Z,0.68
2022-09-20T13:35:54.571Z,3.47
2022-09-20T13:38:24.481Z,1.88
2022-09-20T13:40:54.187Z,1.55
2022-09-20T13:43:29.028Z,2.22
2022-09-20T13:45:59.057Z,2.67
2022-09-20T13:48:30.903Z,0.98
2022-09-20T13:51:00.135Z,1.85
2022-09-20T13:53:46.837Z,1.23
2022-09-20T13:56:19.868Z,3.08
2022-09-20T13:58:49.515Z,1.17
2022-09-20T14:01:24.835Z,2.63
2022-09-20T14:03:57.411Z,0.60
2022-09-20T14:06:28.410Z,2.00
2022-09-20T14:09:01.347Z,0.73
2022-09-20T14:11:32.150Z,1.35
2022-09-20T14:14:02.266Z,1.90
2022-09-20T14:16:36.858Z,1.35
2022-09-20T14:22:08.111Z,1.85
2022-09-20T14:24:37.243Z,1.48
2022-09-20T14:27:13.311Z,3.08
2022-09-20T14:29:43.230Z,2.28
2022-09-20T14:32:21.765Z,1.25
2022-09-20T14:34:59.957Z,1.85
2022-09-20T14:37:31.467Z,3.55
2022-09-20T14:40:01.286Z,1.90
2022-09-20T14:42:32.528Z,3.45
2022-09-20T14:45:00.796Z,1.85
2022-09-20T14:47:29.844Z,5.40
2022-09-20T14:49:58.981Z,3.28
2022-09-20T14:52:38.522Z,2.53
2022-09-20T14:55:20.633Z,2.95
2022-09-20T14:58:10.501Z,4.18
2022-09-20T15:00:49.915Z,5.60
2022-09-20T15:03:23.707Z,2.00
2022-09-20T15:05:51.897Z,2.30
2022-09-20T15:08:21.242Z,2.13
2022-09-20T15:10:49.339Z,2.30
2022-09-20T15:13:17.561Z,1.70
2022-09-20T15:15:46.738Z,2.22
2022-09-20T15:18:21.530Z,5.47
2022-09-20T15:20:50.000Z,1.77
2022-09-20T15:23:18.294Z,1.20
2022-09-20T15:25:50.638Z,1.17
2022-09-20T15:30:50.980Z,1.10
2022-09-20T15:33:19.927Z,1.45
2022-09-20T15:35:48.831Z,1.88
2022-09-20T15:38:18.040Z,1.30
2022-09-20T15:40:49.118Z,2.67
2022-09-20T15:43:19.483Z,1.58
2022-09-20T15:45:50.423Z,3.22
2022-09-20T15:48:21.322Z,2.15
2022-09-20T15:51:02.829Z,3.55
2022-09-20T15:53:33.501Z,3.22
2022-09-20T15:56:04.743Z,4.03
2022-09-20T15:58:36.192Z,2.15
2022-09-20T16:01:06.430Z,1.35
2022-09-20T16:06:27.844Z,0.98
2022-09-20T16:08:56.486Z,1.58
2022-09-20T16:11:27.947Z,6.47
2022-09-20T16:13:57.526Z,2.93
2022-09-20T16:16:26.492Z,3.13
2022-09-20T16:19:12.958Z,3.95
2022-09-20T16:21:42.544Z,1.92
2022-09-20T16:24:12.533Z,1.20
2022-09-20T16:26:42.151Z,1.92
2022-09-20T16:29:11.673Z,4.60
2022-09-20T16:31:41.476Z,2.05
2022-09-20T16:34:13.710Z,2.53
2022-09-20T16:36:43.355Z,3.47
2022-09-20T16:39:13.619Z,2.17
2022-09-20T16:41:47.145Z,3.80
2022-09-20T16:44:18.689Z,2.70
2022-09-20T16:46:47.569Z,3.00
2022-09-20T16:49:17.005Z,2.40
2022-09-20T16:51:46.334Z,1.85
2022-09-20T16:54:19.597Z,2.88
2022-09-20T16:56:50.067Z,4.57
2022-09-20T16:59:20.791Z,3.55
2022-09-20T17:01:49.204Z,3.10
2022-09-20T17:04:23.729Z,2.42
2022-09-20T17:06:52.166Z,4.63
2022-09-20T17:09:20.933Z,5.60
2022-09-20T17:11:51.403Z,2.17
2022-09-20T17:14:20.754Z,5.88
2022-09-20T17:16:49.215Z,4.63
2022-09-20T17:19:18.863Z,4.93
2022-09-20T17:21:49.361Z,4.28
2022-09-20T17:24:18.044Z,5.22
2022-09-20T17:26:46.680Z,4.78
2022-09-20T17:29:17.719Z,3.20
2022-09-20T17:31:54.063Z,3.47
2022-09-20T17:34:23.819Z,3.25
2022-09-20T17:36:51.803Z,7.85
2022-09-20T17:39:19.726Z,4.60
2022-09-20T17:41:48.918Z,5.50
2022-09-20T17:44:18.551Z,4.28
2022-09-20T17:46:48.363Z,4.05
2022-09-20T17:49:19.323Z,6.95
2022-09-20T17:51:48.818Z,2.90
2022-09-20T17:54:17.131Z,3.03
2022-09-20T17:56:47.209Z,2.97
2022-09-20T17:59:16.485Z,4.80
2022-09-20T18:01:47.524Z,5.97
2022-09-20T18:04:16.079Z,6.07
2022-09-20T18:06:47.022Z,7.65
2022-09-20T18:09:16.525Z,6.07
2022-09-20T18:11:46.392Z,6.30
2022-09-20T18:14:14.440Z,6.18
2022-09-20T18:16:43.175Z,4.72
2022-09-20T18:19:12.603Z,7.20
2022-09-20T18:21:41.266Z,6.32
2022-09-20T18:24:10.184Z,12.52
2022-09-20T18:26:38.933Z,11.52
2022-09-20T18:29:08.002Z,10.63
2022-09-20T18:31:37.931Z,11.75
2022-09-20T18:34:07.335Z,13.50
2022-09-20T18:36:39.616Z,13.48
2022-09-20T18:39:08.160Z,12.02
2022-09-20T18:41:37.397Z,11.98
2022-09-20T18:44:07.562Z,12.65
2022-09-20T18:46:38.138Z,13.95
2022-09-20T18:49:09.336Z,13.13
2022-09-20T18:51:39.963Z,15.77
2022-09-20T18:54:10.002Z,15.10
2022-09-20T18:56:38.959Z,16.23
2022-09-20T18:59:08.918Z,19.05
2022-09-20T19:01:56.389Z,18.42
2022-09-20T19:04:32.862Z,17.60
2022-09-20T19:07:08.516Z,15.48
2022-09-20T19:09:40.400Z,16.60
2022-09-20T19:12:16.945Z,15.73
2022-09-20T19:14:57.387Z,18.20
2022-09-20T19:17:35.667Z,19.90
2022-09-20T19:20:05.699Z,16.50
2022-09-20T19:22:53.829Z,15.90
2022-09-20T19:25:27.097Z,20.75
2022-09-20T19:27:55.409Z,13.02
2022-09-20T19:30:23.984Z,16.02
2022-09-20T19:32:52.465Z,19.02
2022-09-20T19:35:23.520Z,17.30
2022-09-20T19:38:03.817Z,21.73
2022-09-20T19:40:39.734Z,21.25
2022-09-20T19:43:23.724Z,20.27
2022-09-20T19:45:57.180Z,17.08
2022-09-20T19:48:29.947Z,18.15
2022-09-20T19:50:58.323Z,17.08
2022-09-20T19:53:28.755Z,19.25
2022-09-20T19:56:00.745Z,17.50
2022-09-20T19:58:29.032Z,17.08
2022-09-20T20:00:58.432Z,22.30
2022-09-20T20:03:27.516Z,26.17
2022-09-20T20:06:05.715Z,22.48
2022-09-20T20:08:40.519Z,21.85
2022-09-20T20:11:17.128Z,21.05
2022-09-20T20:14:04.509Z,22.55
2022-09-20T20:16:37.462Z,24.25
2022-09-20T20:19:12.398Z,20.15
2022-09-20T20:21:46.800Z,24.70
2022-09-20T20:24:25.828Z,21.45
2022-09-20T20:26:53.939Z,24.13
2022-09-20T20:29:21.859Z,24.70
2022-09-20T20:31:49.788Z,21.92
2022-09-20T20:34:17.780Z,20.33
2022-09-20T20:36:45.719Z,17.40
2022-09-20T20:39:14.105Z,17.55
2022-09-20T20:41:44.078Z,19.85
2022-09-20T20:44:12.448Z,17.40
2022-09-20T20:46:40.428Z,19.88
2022-09-20T20:49:08.472Z,19.48
2022-09-20T20:51:36.393Z,13.95
2022-09-20T20:54:04.691Z,16.15
2022-09-20T20:56:32.992Z,17.45
2022-09-20T20:59:04.956Z,20.45
2022-09-20T21:01:34.156Z,13.50
2022-09-20T21:04:03.304Z,13.85
2022-09-20T21:06:33.079Z,18.25
2022-09-20T21:09:01.739Z,19.00
2022-09-20T21:11:31.779Z,21.65
2022-09-20T21:14:02.121Z,15.25
2022-09-20T21:16:31.813Z,19.50
2022-09-20T21:18:59.931Z,13.95
2022-09-20T21:21:29.914Z,13.32
2022-09-20T21:23:59.351Z,16.27
2022-09-20T21:26:28.480Z,17.45
2022-09-20T21:28:58.996Z,20.02
2022-09-20T21:31:29.456Z,14.88
2022-09-20T21:33:58.094Z,15.50
2022-09-20T21:36:27.017Z,24.40
2022-09-20T21:38:55.280Z,15.63
2022-09-20T21:41:24.411Z,13.98
2022-09-20T21:43:54.866Z,14.63
2022-09-20T21:46:25.803Z,25.30
2022-09-20T21:48:55.806Z,16.40
2022-09-20T21:51:24.711Z,15.45
2022-09-20T21:53:56.481Z,20.38
2022-09-20T21:56:26.240Z,20.30
2022-09-20T21:58:55.028Z,20.15
2022-09-20T22:01:24.263Z,19.38
2022-09-20T22:03:54.873Z,23.02
2022-09-20T22:06:27.018Z,21.90
2022-09-20T22:08:58.390Z,18.52
2022-09-20T22:11:27.992Z,17.03
2022-09-20T22:13:56.894Z,18.63
2022-09-20T22:16:26.804Z,21.95
2022-09-20T22:18:56.206Z,18.77
2022-09-20T22:21:27.239Z,16.90
2022-09-20T22:23:57.279Z,18.50
2022-09-20T22:26:26.964Z,17.83
2022-09-20T22:28:55.013Z,16.90
2022-09-20T22:31:24.261Z,16.67
2022-09-20T22:33:53.582Z,19.15
2022-09-20T22:36:23.556Z,23.50
2022-09-20T22:38:53.870Z,25.55
2022-09-20T22:41:22.045Z,21.25
2022-09-20T22:43:50.557Z,19.38
2022-09-20T22:46:19.872Z,22.83
2022-09-20T22:48:48.746Z,21.33
2022-09-20T22:51:18.437Z,19.25
2022-09-20T22:53:46.954Z,22.05
2022-09-20T22:56:18.004Z,20.33
2022-09-20T22:59:06.665Z,21.92
2022-09-20T23:01:35.891Z,18.73
2022-09-20T23:04:06.091Z,24.23
2022-09-20T23:06:36.081Z,19.30
2022-09-20T23:09:06.219Z,20.27
2022-09-20T23:11:36.752Z,18.20
2022-09-20T23:14:05.994Z,18.50
2022-09-20T23:16:35.477Z,17.38
2022-09-20T23:19:05.037Z,19.90
2022-09-20T23:21:33.950Z,17.88
2022-09-20T23:24:03.990Z,16.58
2022-09-20T23:26:33.434Z,18.88
2022-09-20T23:29:04.580Z,14.18
2022-09-20T23:31:34.559Z,19.92
2022-09-20T23:34:04.156Z,16.35
2022-09-20T23:36:33.783Z,17.85
2022-09-20T23:39:01.926Z,18.20
2022-09-20T23:41:29.965Z,19.27
2022-09-20T23:43:58.175Z,20.10
2022-09-20T23:46:27.983Z,22.25
2022-09-20T23:48:56.007Z,22.35
2022-09-20T23:51:25.768Z,23.25
2022-09-20T23:53:54.996Z,28.25
2022-09-20T23:56:23.936Z,25.50
2022-09-20T23:58:54.160Z,27.90
